Time;durP1;ratioP1;P1;durP2;ratioP2;P2;SDS_P1;SDS_P2;PMS_P1;PMS_P2;Temp;Humidity;BMP_temperature;BMP_pressure;BME280_temperature;BME280_humidity;BME280_pressure;Samples;Min_cycle;Max_cycle;Signal;HPM_P1;HPM_P2
2022/04/29 00:01:22;;;;;;;3.10;1.20;;;7.50;99.90;;;;;;5039368;28;20508;-75
2022/04/29 00:03:47;;;;;;;3.30;1.20;;;7.50;99.90;;;;;;5040235;28;20116;-75
2022/04/29 00:06:14;;;;;;;2.42;1.02;;;7.40;99.90;;;;;;5039856;28;20317;-76
2022/04/29 00:08:40;;;;;;;6.05;1.98;;;7.50;99.90;;;;;;5040022;28;20044;-76
2022/04/29 00:11:06;;;;;;;4.65;1.65;;;7.40;99.90;;;;;;5040383;28;20480;-75
2022/04/29 00:13:33;;;;;;;4.05;1.17;;;7.40;99.90;;;;;;5039906;28;20083;-75
2022/04/29 00:16:00;;;;;;;3.40;1.23;;;7.30;99.90;;;;;;5049751;28;20347;-76
2022/04/29 00:18:26;;;;;;;3.45;0.90;;;7.30;99.90;;;;;;5040233;28;20041;-76
2022/04/29 00:20:51;;;;;;;3.40;1.08;;;7.30;99.90;;;;;;5032165;28;20032;-75
2022/04/29 00:23:18;;;;;;;3.88;1.58;;;7.30;99.90;;;;;;5039867;28;20401;-75
2022/04/29 00:25:44;;;;;;;5.35;1.88;;;7.30;99.90;;;;;;5040899;28;20076;-75
2022/04/29 00:28:09;;;;;;;3.65;1.52;;;7.20;99.90;;;;;;5043950;28;20182;-75
2022/04/29 00:30:35;;;;;;;3.88;1.70;;;7.20;99.90;;;;;;5055737;28;20037;-75
2022/04/29 00:33:01;;;;;;;3.45;1.17;;;7.10;99.90;;;;;;5038177;28;20041;-75
2022/04/29 00:35:28;;;;;;;2.50;1.70;;;7.10;99.90;;;;;;5038485;28;20438;-75
2022/04/29 00:37:56;;;;;;;5.15;1.42;;;7.10;99.90;;;;;;5039775;28;20040;-76
2022/04/29 00:40:27;;;;;;;4.40;1.65;;;7.10;99.90;;;;;;5049463;28;20048;-75
2022/04/29 00:42:53;;;;;;;4.38;1.30;;;7.00;99.90;;;;;;5040344;28;20136;-75
2022/04/29 00:45:20;;;;;;;2.85;0.90;;;7.00;99.90;;;;;;5040115;28;20100;-76
2022/04/29 00:47:48;;;;;;;4.50;2.20;;;7.10;99.90;;;;;;5038964;28;20408;-75
2022/04/29 00:50:18;;;;;;;4.32;1.40;;;7.00;99.90;;;;;;5015071;28;20440;-75
2022/04/29 00:52:50;;;;;;;6.43;1.65;;;7.00;99.90;;;;;;5049499;28;20029;-75
2022/04/29 00:55:16;;;;;;;5.72;1.65;;;7.00;99.90;;;;;;5033556;28;20045;-76
2022/04/29 00:58:11;;;;;;;5.18;1.67;;;6.90;99.90;;;;;;5032605;28;20056;-75
2022/04/29 01:00:38;;;;;;;2.75;1.27;;;6.90;99.90;;;;;;5032036;28;20126;-75
2022/04/29 01:03:05;;;;;;;3.60;1.65;;;6.80;99.90;;;;;;5033254;28;20021;-75
2022/04/29 01:05:33;;;;;;;3.95;1.38;;;6.80;99.90;;;;;;5039676;28;20040;-75
2022/04/29 01:07:59;;;;;;;2.42;1.27;;;6.80;99.90;;;;;;5039254;28;20153;-75
2022/04/29 01:10:24;;;;;;;2.22;1.20;;;6.80;99.90;;;;;;5030968;28;20061;-75
2022/04/29 01:12:55;;;;;;;4.03;1.50;;;6.70;99.90;;;;;;5030771;28;20033;-75
2022/04/29 01:15:21;;;;;;;4.13;1.55;;;6.70;99.90;;;;;;5032118;28;20021;-75
2022/04/29 01:17:51;;;;;;;3.38;1.88;;;6.70;99.90;;;;;;5031817;28;20037;-75
2022/04/29 01:20:19;;;;;;;3.20;1.40;;;6.70;99.90;;;;;;5038990;28;20021;-75
2022/04/29 01:22:46;;;;;;;4.07;1.55;;;6.60;99.90;;;;;;5031181;28;20041;-75
2022/04/29 01:25:12;;;;;;;4.30;2.28;;;6.60;99.90;;;;;;5036407;28;20032;-75
2022/04/29 01:27:41;;;;;;;5.07;1.67;;;6.60;99.90;;;;;;5031726;28;20092;-75
2022/04/29 01:30:09;;;;;;;7.85;3.40;;;6.60;99.90;;;;;;5036923;28;20116;-75
2022/04/29 01:32:37;;;;;;;3.55;2.33;;;6.50;99.90;;;;;;5054592;28;20034;-75
2022/04/29 01:35:05;;;;;;;3.97;1.88;;;6.50;99.90;;;;;;5031450;28;20044;-75
2022/04/29 01:37:31;;;;;;;5.43;2.05;;;6.50;99.90;;;;;;5048240;28;20029;-75
2022/04/29 01:39:57;;;;;;;6.35;3.47;;;6.50;99.90;;;;;;5031492;28;20501;-75
2022/04/29 01:42:23;;;;;;;7.30;2.55;;;6.40;99.90;;;;;;5026268;28;20075;-75
2022/04/29 01:44:49;;;;;;;5.55;2.33;;;6.50;99.90;;;;;;5070144;28;20029;-75
2022/04/29 01:47:15;;;;;;;3.05;1.98;;;6.40;99.90;;;;;;5021898;28;20017;-75
2022/04/29 01:49:50;;;;;;;5.55;2.00;;;6.40;99.90;;;;;;5038031;28;20055;-75
2022/04/29 01:52:16;;;;;;;4.18;2.72;;;6.40;99.90;;;;;;5038385;28;20028;-76
2022/04/29 01:54:42;;;;;;;5.57;2.45;;;6.40;99.90;;;;;;5020394;28;20053;-75
2022/04/29 01:57:08;;;;;;;4.68;2.20;;;6.40;99.90;;;;;;5020362;28;20033;-76
2022/04/29 01:59:35;;;;;;;4.75;2.70;;;6.40;99.90;;;;;;5031114;28;20163;-75
2022/04/29 02:02:16;;;;;;;5.65;2.08;;;6.40;99.90;;;;;;5031643;28;20055;-76
2022/04/29 02:04:42;;;;;;;4.15;2.40;;;6.30;99.90;;;;;;5029737;28;20029;-75
2022/04/29 02:07:08;;;;;;;6.50;2.58;;;6.40;99.90;;;;;;5029988;28;20023;-75
2022/04/29 02:09:39;;;;;;;4.28;2.13;;;6.30;99.90;;;;;;5038807;28;20037;-75
2022/04/29 02:12:05;;;;;;;9.00;3.50;;;6.30;99.90;;;;;;5035843;28;20028;-75
2022/04/29 02:14:49;;;;;;;4.30;2.30;;;6.20;99.90;;;;;;5039091;28;20103;-74
2022/04/29 02:17:17;;;;;;;5.22;3.15;;;6.20;99.90;;;;;;5069765;28;20056;-75
2022/04/29 02:19:43;;;;;;;5.40;2.20;;;6.20;99.90;;;;;;5043533;28;20091;-75
2022/04/29 02:22:09;;;;;;;3.88;1.70;;;6.20;99.90;;;;;;5028763;28;20086;-75
2022/04/29 02:24:36;;;;;;;3.63;2.30;;;6.20;99.90;;;;;;5030471;28;20186;-75
2022/04/29 02:27:03;;;;;;;4.93;2.03;;;6.20;99.90;;;;;;5035393;28;20028;-75
2022/04/29 02:29:29;;;;;;;5.07;2.40;;;6.20;99.90;;;;;;5009361;28;20029;-75
2022/04/29 02:31:58;;;;;;;5.57;2.60;;;6.20;99.90;;;;;;5029114;28;22259;-75
2022/04/29 02:34:24;;;;;;;6.90;3.05;;;6.20;99.90;;;;;;5055047;28;20033;-76
2022/04/29 02:36:51;;;;;;;4.75;2.15;;;6.10;99.90;;;;;;5029720;28;20028;-76
2022/04/29 02:39:17;;;;;;;8.15;3.80;;;6.10;99.90;;;;;;5053060;28;20128;-75
2022/04/29 02:41:44;;;;;;;6.25;3.13;;;6.10;99.90;;;;;;5031127;28;20029;-75
2022/04/29 02:44:10;;;;;;;5.85;3.15;;;6.10;99.90;;;;;;5035712;28;20024;-76
2022/04/29 02:47:06;;;;;;;5.13;2.53;;;6.10;99.90;;;;;;5037827;28;20492;-75
2022/04/29 02:49:23;;;;;;;6.50;3.00;;;6.10;99.90;;;;;;5035990;28;20036;-75
2022/04/29 02:51:49;;;;;;;6.45;3.50;;;6.00;99.90;;;;;;5036570;28;20054;-75
2022/04/29 02:54:15;;;;;;;4.00;2.75;;;6.00;99.90;;;;;;5013485;28;20531;-76
2022/04/29 02:56:41;;;;;;;4.88;3.50;;;6.00;99.90;;;;;;5029376;28;20405;-75
2022/04/29 02:59:12;;;;;;;6.93;4.20;;;6.00;99.90;;;;;;5037806;28;20086;-75
2022/04/29 03:01:38;;;;;;;4.78;3.35;;;6.00;99.90;;;;;;5036064;28;20738;-75
2022/04/29 03:04:04;;;;;;;6.40;3.13;;;5.90;99.90;;;;;;5029600;28;20037;-75
2022/04/29 03:06:30;;;;;;;5.38;3.50;;;6.00;99.90;;;;;;5029595;28;20261;-75
2022/04/29 03:08:56;;;;;;;4.68;3.20;;;6.00;99.90;;;;;;5035860;28;20136;-75
2022/04/29 03:11:23;;;;;;;8.02;3.17;;;5.90;99.90;;;;;;5036659;28;20116;-75
2022/04/29 03:13:49;;;;;;;9.45;4.32;;;5.90;99.90;;;;;;5069763;28;20741;-75
2022/04/29 03:16:16;;;;;;;6.53;3.95;;;5.90;99.90;;;;;;5016453;28;20021;-75
2022/04/29 03:18:43;;;;;;;7.25;3.92;;;5.90;99.90;;;;;;5056441;28;20547;-76
2022/04/29 03:21:09;;;;;;;6.93;3.83;;;5.90;99.90;;;;;;5032529;28;20107;-76
2022/04/29 03:23:34;;;;;;;6.78;4.20;;;5.90;99.90;;;;;;5040722;28;20544;-75
2022/04/29 03:26:00;;;;;;;6.55;3.80;;;5.90;99.90;;;;;;5040712;28;20021;-75
2022/04/29 03:28:27;;;;;;;6.25;3.65;;;5.90;99.90;;;;;;5039037;28;20036;-74
2022/04/29 03:30:52;;;;;;;8.23;4.03;;;5.90;99.90;;;;;;5033781;28;20036;-75
2022/04/29 03:33:22;;;;;;;7.10;3.75;;;5.80;99.90;;;;;;5023811;28;20040;-75
2022/04/29 03:35:50;;;;;;;6.25;3.08;;;5.90;99.90;;;;;;5040958;28;20021;-75
2022/04/29 03:38:26;;;;;;;8.63;3.55;;;5.90;99.90;;;;;;5039266;28;20481;-75
2022/04/29 03:40:53;;;;;;;5.63;2.13;;;5.80;99.90;;;;;;5040080;28;20040;-75
2022/04/29 03:43:22;;;;;;;7.13;3.55;;;5.80;99.90;;;;;;5035975;28;20036;-75
2022/04/29 03:45:51;;;;;;;6.25;3.38;;;5.80;99.90;;;;;;5040534;28;20031;-75
2022/04/29 03:48:24;;;;;;;7.22;4.38;;;5.80;99.90;;;;;;5071962;28;20456;-75
2022/04/29 03:51:04;;;;;;;6.72;4.20;;;5.80;99.90;;;;;;5038336;28;20041;-75
2022/04/29 03:53:30;;;;;;;3.53;2.33;;;5.80;99.90;;;;;;5039480;28;20041;-75
2022/04/29 03:56:05;;;;;;;6.85;3.25;;;5.80;99.90;;;;;;5071518;28;20049;-75
2022/04/29 03:58:30;;;;;;;4.65;3.03;;;5.70;99.90;;;;;;5037518;28;20041;-75
2022/04/29 04:00:56;;;;;;;8.32;4.75;;;5.70;99.90;;;;;;5033285;28;20025;-76
2022/04/29 04:03:38;;;;;;;8.68;5.10;;;5.70;99.90;;;;;;5040644;28;20052;-75
2022/04/29 04:08:52;;;;;;;5.80;3.67;;;5.60;99.90;;;;;;5044600;28;20045;-75
2022/04/29 04:11:18;;;;;;;7.57;4.15;;;5.70;99.90;;;;;;5033180;28;20032;-75
2022/04/29 04:13:44;;;;;;;7.10;4.00;;;5.60;99.90;;;;;;5030145;28;20039;-75
2022/04/29 04:16:17;;;;;;;6.30;3.72;;;5.70;99.90;;;;;;5055553;28;20104;-75
2022/04/29 04:18:44;;;;;;;4.97;2.30;;;5.70;99.90;;;;;;5039461;28;20029;-75
2022/04/29 04:21:10;;;;;;;10.00;4.30;;;5.70;99.90;;;;;;5050556;28;20615;-75
2022/04/29 04:23:36;;;;;;;6.32;2.95;;;5.70;99.90;;;;;;5038206;28;20029;-75
2022/04/29 04:26:02;;;;;;;7.72;2.90;;;5.70;99.90;;;;;;5032175;28;20639;-75
2022/04/29 04:28:27;;;;;;;6.88;3.28;;;5.70;99.90;;;;;;5039150;28;20036;-75
2022/04/29 04:30:59;;;;;;;5.88;2.63;;;5.70;99.90;;;;;;5040169;28;20021;-75
2022/04/29 04:33:35;;;;;;;6.20;3.40;;;5.70;99.90;;;;;;5072028;28;20072;-75
2022/04/29 04:36:01;;;;;;;4.20;3.03;;;5.70;99.90;;;;;;5032172;28;20047;-75
2022/04/29 04:38:27;;;;;;;9.88;4.65;;;5.80;99.90;;;;;;5039840;28;20338;-75
2022/04/29 04:41:04;;;;;;;7.35;4.15;;;5.70;99.90;;;;;;5001517;28;20040;-75
2022/04/29 04:43:30;;;;;;;7.28;3.45;;;5.80;99.90;;;;;;5054058;28;20029;-75
2022/04/29 04:45:58;;;;;;;5.63;4.18;;;5.80;99.90;;;;;;5021983;28;20025;-75
2022/04/29 04:48:40;;;;;;;7.15;4.65;;;5.80;99.90;;;;;;5038845;28;20951;-75
2022/04/29 04:51:17;;;;;;;9.63;6.10;;;5.80;99.90;;;;;;5039205;28;20359;-75
2022/04/29 04:53:48;;;;;;;7.45;4.07;;;5.80;99.90;;;;;;5031575;28;20052;-75
2022/04/29 04:56:15;;;;;;;5.97;4.20;;;5.90;99.90;;;;;;5032347;28;20045;-76
2022/04/29 04:58:42;;;;;;;4.85;2.80;;;5.90;99.90;;;;;;5031421;28;20032;-75
2022/04/29 05:01:07;;;;;;;9.07;4.18;;;6.00;99.90;;;;;;5032513;28;20029;-75
2022/04/29 05:03:51;;;;;;;6.80;4.03;;;6.00;99.90;;;;;;5043680;28;20143;-75
2022/04/29 05:06:37;;;;;;;10.05;4.53;;;6.00;99.90;;;;;;5017799;28;20068;-75
2022/04/29 05:09:07;;;;;;;11.98;4.97;;;6.00;99.90;;;;;;5037535;28;20299;-75
2022/04/29 05:11:35;;;;;;;6.40;4.28;;;6.00;99.90;;;;;;5040006;28;20526;-75
2022/04/29 05:14:01;;;;;;;9.52;4.03;;;6.10;99.90;;;;;;5030889;28;20124;-75
2022/04/29 05:16:30;;;;;;;7.00;3.65;;;6.10;99.90;;;;;;5037966;28;20039;-75
2022/04/29 05:19:31;;;;;;;8.10;3.40;;;6.20;99.90;;;;;;5037678;28;20106;-75
2022/04/29 05:21:57;;;;;;;7.90;4.22;;;6.20;99.90;;;;;;5053627;28;20021;-75
2022/04/29 05:24:24;;;;;;;6.82;3.50;;;6.20;99.90;;;;;;5031419;28;20033;-75
2022/04/29 05:27:08;;;;;;;7.20;3.97;;;6.20;99.90;;;;;;5038234;28;20036;-75
2022/04/29 05:29:52;;;;;;;7.93;3.78;;;6.30;99.90;;;;;;5038738;28;20121;-75
2022/04/29 05:32:57;;;;;;;5.38;2.80;;;6.40;99.90;;;;;;4993832;28;20037;-75
2022/04/29 05:35:42;;;;;;;9.93;3.88;;;6.40;99.90;;;;;;4996077;28;20064;-75
2022/04/29 05:43:57;;;;;;;8.95;3.75;;;6.30;99.90;;;;;;4995641;28;20049;-76
2022/04/29 05:46:23;;;;;;;8.98;3.72;;;6.30;99.90;;;;;;4995693;28;20494;-76
2022/04/29 05:48:49;;;;;;;5.15;3.50;;;6.40;99.90;;;;;;4996064;28;20061;-76
2022/04/29 05:51:15;;;;;;;6.95;3.67;;;6.40;99.90;;;;;;4977986;28;20482;-76
2022/04/29 05:53:40;;;;;;;8.52;4.35;;;6.40;99.90;;;;;;4996583;28;20026;-76
2022/04/29 05:56:06;;;;;;;11.00;5.10;;;6.50;99.90;;;;;;4994766;28;20038;-76
2022/04/29 05:58:33;;;;;;;10.45;6.13;;;6.50;99.90;;;;;;4977749;28;20033;-76
2022/04/29 06:01:18;;;;;;;6.43;3.70;;;6.40;99.90;;;;;;4995731;28;20043;-76
2022/04/29 06:03:44;;;;;;;5.43;3.88;;;6.40;99.90;;;;;;5002789;28;20056;-76
2022/04/29 06:06:09;;;;;;;9.68;4.32;;;6.50;99.90;;;;;;5030396;28;20083;-75
2022/04/29 06:08:38;;;;;;;9.45;3.97;;;6.50;99.90;;;;;;5025750;28;20453;-76
2022/04/29 06:11:04;;;;;;;10.38;5.47;;;6.60;99.90;;;;;;5029788;28;20036;-76
2022/04/29 06:13:30;;;;;;;9.27;5.38;;;6.50;99.90;;;;;;5020729;28;20539;-76
2022/04/29 06:16:14;;;;;;;9.52;6.40;;;6.60;99.90;;;;;;5036836;28;20052;-77
2022/04/29 06:18:58;;;;;;;8.10;4.30;;;6.60;99.90;;;;;;5037718;28;20040;-76
2022/04/29 06:21:42;;;;;;;8.40;4.57;;;6.70;99.90;;;;;;5037137;28;20040;-76
2022/04/29 06:24:26;;;;;;;8.85;3.92;;;6.80;99.90;;;;;;5030940;28;20562;-76
2022/04/29 06:26:52;;;;;;;7.07;4.28;;;6.90;99.90;;;;;;5035583;28;20025;-76
2022/04/29 06:29:18;;;;;;;9.68;3.75;;;7.00;99.90;;;;;;5029313;28;20040;-76
2022/04/29 06:31:43;;;;;;;10.02;5.15;;;7.00;99.90;;;;;;5011203;28;20041;-76
2022/04/29 06:34:38;;;;;;;8.27;3.58;;;7.10;99.90;;;;;;5035690;28;20194;-76
2022/04/29 06:37:05;;;;;;;5.97;2.92;;;7.20;99.90;;;;;;5033429;28;20024;-76
2022/04/29 06:39:32;;;;;;;10.10;5.00;;;7.30;99.90;;;;;;5029072;28;20036;-76
2022/04/29 06:42:20;;;;;;;6.30;4.00;;;7.30;99.90;;;;;;5030832;28;20040;-76
2022/04/29 06:45:18;;;;;;;8.50;3.80;;;7.40;99.90;;;;;;5013155;28;22170;-76
2022/04/29 06:48:02;;;;;;;4.88;2.67;;;7.50;99.90;;;;;;5013727;28;20053;-76
2022/04/29 06:50:54;;;;;;;7.45;5.03;;;7.60;99.90;;;;;;5013617;28;20041;-76
2022/04/29 06:53:19;;;;;;;9.38;4.40;;;7.60;99.90;;;;;;5013581;28;20507;-76
2022/04/29 06:55:45;;;;;;;10.02;4.75;;;7.60;99.90;;;;;;5014000;28;20379;-76
2022/04/29 06:58:10;;;;;;;8.57;3.58;;;7.70;99.90;;;;;;4997090;28;20091;-76
2022/04/29 07:00:39;;;;;;;5.85;3.60;;;7.80;99.90;;;;;;4999768;28;20028;-76
2022/04/29 07:03:05;;;;;;;6.78;3.33;;;7.90;99.90;;;;;;5013861;28;20041;-76
2022/04/29 07:05:31;;;;;;;11.85;5.93;;;8.00;99.90;;;;;;5014574;28;20168;-76
2022/04/29 07:08:02;;;;;;;8.27;4.32;;;7.90;99.90;;;;;;5013088;28;20525;-76
2022/04/29 07:10:47;;;;;;;6.38;3.65;;;8.00;99.90;;;;;;5014255;28;20129;-76
2022/04/29 07:13:32;;;;;;;6.80;3.40;;;8.20;99.90;;;;;;5013113;28;20140;-76
2022/04/29 07:15:58;;;;;;;6.20;2.53;;;8.40;99.90;;;;;;4997655;28;20466;-76
2022/04/29 07:18:44;;;;;;;6.15;3.35;;;8.60;99.90;;;;;;5014962;28;20102;-76
2022/04/29 07:21:11;;;;;;;6.85;4.03;;;8.70;99.90;;;;;;4995558;28;20090;-76
2022/04/29 07:23:36;;;;;;;5.75;3.47;;;8.70;99.90;;;;;;5037349;28;20033;-76
2022/04/29 07:26:02;;;;;;;5.65;2.90;;;8.80;99.90;;;;;;5067623;28;20033;-76
2022/04/29 07:28:28;;;;;;;5.80;3.13;;;9.10;99.90;;;;;;5034200;28;20048;-76
2022/04/29 07:30:56;;;;;;;7.82;4.35;;;9.30;99.90;;;;;;5041544;28;20447;-76
2022/04/29 07:33:42;;;;;;;4.70;2.97;;;9.30;99.90;;;;;;5032095;28;20613;-76
2022/04/29 07:42:16;;;;;;;9.40;4.18;;;9.50;99.90;;;;;;5029057;28;20366;-76
2022/04/29 07:44:42;;;;;;;7.88;4.65;;;9.50;99.90;;;;;;5035920;28;20139;-76
2022/04/29 07:47:11;;;;;;;8.32;3.97;;;9.80;99.90;;;;;;5020202;28;20051;-76
2022/04/29 07:49:38;;;;;;;5.68;2.78;;;10.10;99.90;;;;;;5035958;28;20477;-76
2022/04/29 07:52:04;;;;;;;5.00;3.05;;;10.20;99.90;;;;;;5029571;28;20033;-76
2022/04/29 07:54:33;;;;;;;7.30;2.70;;;10.20;99.90;;;;;;5051405;28;20493;-76
2022/04/29 07:56:59;;;;;;;6.45;2.72;;;10.20;99.90;;;;;;5035549;28;20025;-76
2022/04/29 07:59:25;;;;;;;3.60;1.60;;;10.50;99.90;;;;;;5034871;28;20037;-76
2022/04/29 08:02:03;;;;;;;8.52;5.32;;;10.50;99.90;;;;;;5069187;28;20032;-77
2022/04/29 08:04:29;;;;;;;13.32;5.15;;;9.90;99.90;;;;;;5055667;28;20584;-76
2022/04/29 08:06:54;;;;;;;10.30;5.53;;;10.20;99.90;;;;;;5044287;28;20061;-76
2022/04/29 08:09:21;;;;;;;8.93;5.22;;;10.00;99.90;;;;;;5031944;28;20048;-76
2022/04/29 08:11:46;;;;;;;6.30;4.20;;;10.30;99.90;;;;;;5039461;28;20025;-76
2022/04/29 08:14:27;;;;;;;7.43;3.55;;;10.50;99.90;;;;;;5040137;28;20044;-77
2022/04/29 08:17:23;;;;;;;10.73;5.47;;;10.80;99.90;;;;;;5028145;28;20040;-76
2022/04/29 08:19:50;;;;;;;6.22;3.80;;;10.60;99.90;;;;;;5037727;28;20382;-77
2022/04/29 08:22:19;;;;;;;10.63;5.22;;;10.50;99.90;;;;;;5021564;28;20384;-76
2022/04/29 08:24:45;;;;;;;12.85;5.35;;;10.60;99.90;;;;;;5054939;28;20090;-76
2022/04/29 08:27:11;;;;;;;11.02;5.95;;;10.50;99.90;;;;;;5039110;28;20449;-76
2022/04/29 08:29:38;;;;;;;11.80;5.40;;;10.60;99.90;;;;;;5054082;28;20118;-77
2022/04/29 08:32:04;;;;;;;8.45;4.65;;;10.40;99.90;;;;;;5031478;28;20040;-76
2022/04/29 08:34:33;;;;;;;9.13;4.72;;;10.80;99.90;;;;;;5037626;28;20027;-76
2022/04/29 08:37:03;;;;;;;7.32;3.90;;;10.70;99.90;;;;;;5038127;28;20028;-76
2022/04/29 08:39:30;;;;;;;6.50;3.30;;;11.20;99.90;;;;;;5037332;28;20037;-77
2022/04/29 08:42:01;;;;;;;4.18;1.95;;;11.60;99.90;;;;;;5054144;28;20025;-77
2022/04/29 08:44:30;;;;;;;9.07;4.13;;;12.10;99.90;;;;;;5031745;28;20053;-77
2022/04/29 08:47:13;;;;;;;8.90;5.00;;;11.80;99.90;;;;;;5030934;28;20021;-77
2022/04/29 08:49:46;;;;;;;7.72;3.95;;;11.70;99.90;;;;;;5020138;28;20052;-77
2022/04/29 08:52:14;;;;;;;9.10;5.78;;;11.70;99.90;;;;;;5039008;28;20048;-77
2022/04/29 09:00:23;;;;;;;6.05;2.95;;;11.40;99.90;;;;;;5031615;28;20025;-77
2022/04/29 09:02:49;;;;;;;6.88;2.90;;;11.50;99.90;;;;;;5037961;28;20477;-76
2022/04/29 09:05:15;;;;;;;4.72;2.30;;;12.00;99.90;;;;;;5038651;28;20029;-77
2022/04/29 09:07:54;;;;;;;4.90;2.13;;;12.40;99.90;;;;;;5070902;28;20116;-77
2022/04/29 09:10:21;;;;;;;3.65;1.95;;;12.80;99.90;;;;;;5037105;28;20478;-77
2022/04/29 09:12:47;;;;;;;8.68;4.50;;;13.10;99.90;;;;;;5039053;28;20036;-77
2022/04/29 09:15:14;;;;;;;7.90;4.53;;;12.20;99.90;;;;;;5038179;28;20044;-77
2022/04/29 09:17:48;;;;;;;8.30;3.88;;;11.90;99.90;;;;;;5039409;28;20040;-77
2022/04/29 09:20:16;;;;;;;6.30;3.05;;;12.00;99.90;;;;;;5037321;28;20036;-77
2022/04/29 09:22:46;;;;;;;9.52;3.88;;;12.10;99.90;;;;;;5039207;28;20072;-77
2022/04/29 09:25:36;;;;;;;12.68;4.88;;;12.10;99.90;;;;;;5038007;28;20037;-77
2022/04/29 09:28:42;;;;;;;10.38;4.72;;;12.10;99.90;;;;;;5021897;28;20397;-77
2022/04/29 09:31:15;;;;;;;9.32;3.88;;;12.20;99.90;;;;;;5026928;28;20056;-77
2022/04/29 09:34:19;;;;;;;6.15;3.83;;;11.90;99.90;;;;;;5044186;28;20044;-77
2022/04/29 09:36:48;;;;;;;10.73;4.65;;;11.90;99.90;;;;;;5071203;28;20718;-77
2022/04/29 09:39:32;;;;;;;8.43;3.65;;;11.80;99.90;;;;;;5030272;28;20043;-77
2022/04/29 09:41:58;;;;;;;8.13;4.05;;;11.80;99.90;;;;;;5038229;28;20031;-77
2022/04/29 09:44:32;;;;;;;8.18;4.47;;;12.10;99.90;;;;;;5030104;28;20033;-77
2022/04/29 09:47:13;;;;;;;8.27;3.28;;;12.30;99.90;;;;;;5038316;28;20089;-78
2022/04/29 09:49:53;;;;;;;8.98;3.60;;;12.60;99.90;;;;;;5038261;28;20789;-77
2022/04/29 09:52:19;;;;;;;;;;;12.50;99.90;;;;;;5038930;28;20030;-77
2022/04/29 09:54:45;;;;;;;6.82;4.13;;;12.70;99.90;;;;;;5037636;28;19917;-77
2022/04/29 09:57:15;;;;;;;7.60;5.00;;;12.50;99.90;;;;;;5037449;28;20033;-77
2022/04/29 09:59:46;;;;;;;11.25;4.80;;;12.70;99.90;;;;;;5038288;28;20086;-77
2022/04/29 10:02:23;;;;;;;10.93;4.80;;;12.50;99.90;;;;;;5069168;28;20068;-77
2022/04/29 10:04:52;;;;;;;8.48;3.65;;;12.90;99.90;;;;;;5021007;28;20084;-77
2022/04/29 10:07:20;;;;;;;8.35;5.57;;;13.30;99.90;;;;;;5037892;28;20033;-77
2022/04/29 10:09:51;;;;;;;10.80;5.97;;;13.10;99.90;;;;;;5036664;28;20126;-77
2022/04/29 10:12:22;;;;;;;10.38;4.13;;;13.10;99.90;;;;;;5038384;28;20025;-77
2022/04/29 10:14:58;;;;;;;4.35;2.45;;;13.60;99.90;;;;;;5030186;28;20021;-77
2022/04/29 10:23:15;;;;;;;6.97;5.00;;;13.70;99.90;;;;;;5037793;28;20025;-77
2022/04/29 10:25:47;;;;;;;9.85;5.93;;;13.30;99.90;;;;;;5038081;28;20028;-77
2022/04/29 10:28:23;;;;;;;7.63;4.60;;;13.20;99.90;;;;;;5039067;28;20045;-77
2022/04/29 10:31:05;;;;;;;6.05;3.78;;;13.40;99.90;;;;;;5037703;28;20037;-78
2022/04/29 10:33:31;;;;;;;9.50;4.72;;;13.70;99.90;;;;;;5036217;28;20033;-77
2022/04/29 10:36:08;;;;;;;4.88;2.90;;;13.60;99.90;;;;;;5068715;28;20040;-78
2022/04/29 10:38:39;;;;;;;5.82;3.55;;;14.20;99.90;;;;;;5029789;28;20048;-78
2022/04/29 10:41:25;;;;;;;8.65;3.72;;;14.50;99.90;;;;;;5030327;28;20594;-78
2022/04/29 10:43:51;;;;;;;8.13;4.28;;;14.10;99.90;;;;;;5029905;28;20072;-78
2022/04/29 10:46:36;;;;;;;11.18;4.95;;;13.80;99.90;;;;;;5037930;28;20104;-77
2022/04/29 10:49:26;;;;;;;8.05;4.10;;;13.50;99.90;;;;;;5036162;28;20140;-77
2022/04/29 10:52:26;;;;;;;6.20;3.38;;;13.90;99.90;;;;;;5049759;28;20033;-77
2022/04/29 10:55:05;;;;;;;6.85;4.63;;;14.10;99.90;;;;;;5017682;28;20157;-77
2022/04/29 10:57:50;;;;;;;6.80;3.13;;;13.70;99.90;;;;;;4989987;28;20475;-78
2022/04/29 11:00:23;;;;;;;7.90;5.03;;;13.70;99.90;;;;;;4995235;28;20037;-77
2022/04/29 11:02:49;;;;;;;7.65;4.40;;;13.60;99.90;;;;;;4987780;28;20132;-77
2022/04/29 11:05:36;;;;;;;8.90;4.53;;;13.50;99.90;;;;;;4990935;28;20081;-77
2022/04/29 11:08:10;;;;;;;10.32;4.60;;;13.90;99.90;;;;;;4989013;28;20125;-77
2022/04/29 11:10:56;;;;;;;5.90;3.47;;;13.90;99.90;;;;;;4984296;28;20636;-77
2022/04/29 11:13:23;;;;;;;10.55;4.30;;;14.10;99.90;;;;;;4988201;28;20045;-78
2022/04/29 11:16:15;;;;;;;8.57;4.45;;;13.90;99.90;;;;;;4990010;28;20031;-78
2022/04/29 11:19:21;;;;;;;8.18;3.47;;;13.70;99.90;;;;;;4983013;28;20033;-77
2022/04/29 11:24:46;;;;;;;5.97;2.28;;;14.30;99.90;;;;;;4991115;28;20026;-78
2022/04/29 11:27:37;;;;;;;6.15;3.33;;;14.40;99.90;;;;;;5005599;28;20034;-78
2022/04/29 11:30:05;;;;;;;9.57;4.88;;;13.80;99.90;;;;;;4978743;28;20046;-78
2022/04/29 11:32:42;;;;;;;9.88;5.55;;;13.40;99.90;;;;;;4991025;28;20041;-77
2022/04/29 11:35:08;;;;;;;8.88;4.40;;;13.20;99.90;;;;;;4990349;28;20049;-77
2022/04/29 11:37:35;;;;;;;7.63;4.03;;;13.10;99.90;;;;;;4992011;28;20034;-78
2022/04/29 11:40:06;;;;;;;8.10;3.35;;;13.40;99.90;;;;;;4998608;28;20037;-77
2022/04/29 11:42:33;;;;;;;8.10;4.70;;;13.30;99.90;;;;;;5004440;28;20041;-77
2022/04/29 11:45:09;;;;;;;6.90;4.60;;;13.20;99.90;;;;;;4993871;28;20061;-78
2022/04/29 11:47:37;;;;;;;9.65;5.05;;;13.20;99.90;;;;;;5009445;28;20072;-78
2022/04/29 11:50:07;;;;;;;9.65;5.38;;;13.10;99.90;;;;;;4994659;28;20033;-78
2022/04/29 11:52:36;;;;;;;6.40;3.20;;;13.10;99.90;;;;;;4994088;28;20041;-78
2022/04/29 11:55:06;;;;;;;5.18;2.45;;;13.60;99.90;;;;;;4994211;28;20064;-77
2022/04/29 11:57:33;;;;;;;;;;;14.00;99.90;;;;;;4994620;28;20065;-77
2022/04/29 12:00:02;;;;;;;8.30;2.80;;;13.80;99.90;;;;;;4992826;28;19917;-78
2022/04/29 12:02:46;;;;;;;5.63;1.60;;;13.80;99.90;;;;;;4993365;28;20779;-77
2022/04/29 12:05:13;;;;;;;7.70;3.50;;;14.20;99.90;;;;;;5008769;28;20057;-77
2022/04/29 12:07:45;;;;;;;4.80;2.28;;;13.90;99.90;;;;;;4993731;28;20478;-78
2022/04/29 12:10:24;;;;;;;6.55;3.65;;;13.90;99.90;;;;;;4993313;28;20509;-78
2022/04/29 12:13:01;;;;;;;7.35;2.58;;;13.70;99.90;;;;;;5008768;28;20407;-78
2022/04/29 12:15:35;;;;;;;6.50;2.53;;;13.70;99.90;;;;;;4992843;28;20087;-78
2022/04/29 12:18:09;;;;;;;2.88;1.42;;;14.20;99.90;;;;;;4991967;28;20036;-78
2022/04/29 12:20:37;;;;;;;7.03;2.60;;;14.10;99.90;;;;;;4993543;28;20030;-77
2022/04/29 12:23:22;;;;;;;5.18;2.67;;;13.70;99.90;;;;;;4994689;28;20117;-78
2022/04/29 12:25:48;;;;;;;8.60;4.13;;;13.70;99.90;;;;;;4994899;28;20132;-78
2022/04/29 12:28:20;;;;;;;9.18;4.20;;;13.30;99.90;;;;;;5009332;28;20517;-78
2022/04/29 12:37:07;;;;;;;7.20;3.60;;;13.50;99.90;;;;;;5008963;28;20101;-78
2022/04/29 12:39:45;;;;;;;6.10;2.05;;;13.60;99.90;;;;;;5007752;28;20034;-78
2022/04/29 12:42:12;;;;;;;5.82;3.10;;;14.00;99.90;;;;;;5008489;28;20037;-78
2022/04/29 12:45:05;;;;;;;6.18;2.90;;;14.00;99.90;;;;;;4993608;28;20026;-78
2022/04/29 12:47:43;;;;;;;6.28;3.15;;;13.80;99.90;;;;;;5006066;28;20042;-77
2022/04/29 12:50:35;;;;;;;8.18;3.55;;;13.70;99.90;;;;;;4993148;28;20128;-78
2022/04/29 12:53:07;;;;;;;5.20;2.92;;;13.70;99.90;;;;;;5007162;28;20037;-77
2022/04/29 12:55:36;;;;;;;6.30;2.58;;;13.70;99.90;;;;;;5007547;28;20054;-78
2022/04/29 12:58:08;;;;;;;5.15;2.15;;;14.10;99.90;;;;;;4992162;28;20112;-77
2022/04/29 13:00:36;;;;;;;6.97;2.75;;;14.40;99.90;;;;;;4993273;28;20127;-78
2022/04/29 13:03:08;;;;;;;7.60;2.65;;;14.30;99.90;;;;;;4993086;28;20486;-78
2022/04/29 13:05:35;;;;;;;4.60;3.08;;;14.10;99.90;;;;;;4992817;28;20410;-78
2022/04/29 13:08:05;;;;;;;9.52;3.75;;;14.00;99.90;;;;;;4993444;28;20045;-78
2022/04/29 13:10:41;;;;;;;6.57;3.60;;;13.60;99.90;;;;;;4993775;28;20510;-78
2022/04/29 13:13:06;;;;;;;5.82;3.33;;;13.80;99.90;;;;;;4992805;28;20084;-77
2022/04/29 13:15:33;;;;;;;6.15;2.83;;;13.90;99.90;;;;;;4992789;28;20394;-78
2022/04/29 13:17:59;;;;;;;7.28;2.30;;;14.00;99.90;;;;;;4990889;28;20049;-78
2022/04/29 13:20:26;;;;;;;4.28;1.73;;;14.60;99.90;;;;;;4993397;28;20030;-78
2022/04/29 13:22:53;;;;;;;5.00;1.77;;;14.90;99.90;;;;;;4974806;28;20044;-78
2022/04/29 13:25:18;;;;;;;3.72;1.42;;;15.00;99.90;;;;;;5007489;28;20516;-78
2022/04/29 13:27:45;;;;;;;3.17;1.40;;;15.00;99.90;;;;;;4990984;28;20026;-79
2022/04/29 13:30:11;;;;;;;4.75;1.30;;;15.30;99.90;;;;;;4992391;28;20101;-78
2022/04/29 13:32:37;;;;;;;5.30;2.58;;;15.40;99.90;;;;;;4993197;28;20483;-83
2022/04/29 13:35:05;;;;;;;4.97;2.78;;;14.80;99.90;;;;;;4993118;28;20390;-78
2022/04/29 13:37:32;;;;;;;6.05;1.52;;;14.80;99.90;;;;;;4960483;28;20043;-78
2022/04/29 13:39:58;;;;;;;4.63;1.13;;;15.00;99.90;;;;;;4992922;28;20038;-78
2022/04/29 13:42:24;;;;;;;3.60;1.45;;;15.10;99.90;;;;;;5006883;28;20220;-79
2022/04/29 13:44:50;;;;;;;2.75;1.33;;;15.10;99.90;;;;;;5006853;28;20284;-78
2022/04/29 13:47:16;;;;;;;2.55;0.75;;;15.40;99.90;;;;;;4992491;28;20022;-78
2022/04/29 13:49:41;;;;;;;2.33;0.90;;;15.50;99.90;;;;;;4992858;28;20053;-78